Time;durP1;ratioP1;P1;durP2;ratioP2;P2;SDS_P1;SDS_P2;PMS_P1;PMS_P2;Temp;Humidity;BMP_temperature;BMP_pressure;BME280_temperature;BME280_humidity;BME280_pressure;Samples;Min_cycle;Max_cycle;Signal;HPM_P1;HPM_P2
2022/09/01 00:00:50;;;;;;;;;;;16.30;99.90;;;;;;5083551;28;19967;-84
2022/09/01 00:03:17;;;;;;;;;;;16.30;99.90;;;;;;5050495;28;19948;-84
2022/09/01 00:05:45;;;;;;;;;;;16.20;99.90;;;;;;5050212;28;19974;-84
2022/09/01 00:08:13;;;;;;;;;;;16.20;99.90;;;;;;5050264;28;20393;-84
2022/09/01 00:10:39;;;;;;;;;;;16.20;99.90;;;;;;5050151;28;19928;-84
2022/09/01 00:13:05;;;;;;;;;;;16.20;99.90;;;;;;5083770;28;20011;-84
2022/09/01 00:15:32;;;;;;;;;;;16.10;99.90;;;;;;5083376;28;19921;-84
2022/09/01 00:17:58;;;;;;;;;;;16.10;99.90;;;;;;5050206;28;19963;-84
2022/09/01 00:20:23;;;;;;;;;;;16.10;99.90;;;;;;5033487;28;19967;-84
2022/09/01 00:22:49;;;;;;;;;;;16.00;99.90;;;;;;5049452;28;19927;-84
2022/09/01 00:25:17;;;;;;;;;;;16.00;99.90;;;;;;5050045;28;19968;-84
2022/09/01 00:27:43;;;;;;;;;;;16.00;99.90;;;;;;5083596;28;19920;-84
2022/09/01 00:30:09;;;;;;;;;;;16.00;99.90;;;;;;5049669;28;19928;-84
2022/09/01 00:32:34;;;;;;;;;;;15.90;99.90;;;;;;5049516;28;19928;-84
2022/09/01 00:35:00;;;;;;;;;;;15.90;99.90;;;;;;5049772;28;20003;-84
2022/09/01 00:37:25;;;;;;;;;;;15.90;99.90;;;;;;5049651;28;19977;-84
2022/09/01 00:39:51;;;;;;;;;;;15.80;99.90;;;;;;5049884;28;19924;-84
2022/09/01 00:42:17;;;;;;;;;;;15.80;99.90;;;;;;5049518;28;20009;-84
2022/09/01 00:44:42;;;;;;;;;;;15.80;99.90;;;;;;5049331;28;19962;-84
2022/09/01 00:47:08;;;;;;;;;;;15.80;99.90;;;;;;5049732;28;19924;-84
2022/09/01 00:49:35;;;;;;;;;;;15.80;99.90;;;;;;5082872;28;20493;-84
2022/09/01 00:52:06;;;;;;;;;;;15.70;99.90;;;;;;5049220;28;19929;-84
2022/09/01 00:54:34;;;;;;;;;;;15.60;99.90;;;;;;5083039;28;20332;-84
2022/09/01 00:57:01;;;;;;;;;;;15.60;99.90;;;;;;5049877;28;19920;-84
2022/09/01 00:59:27;;;;;;;;;;;15.50;99.90;;;;;;5049487;28;20371;-84
2022/09/01 01:01:53;;;;;;;;;;;15.50;99.90;;;;;;5049044;28;20414;-84
2022/09/01 01:04:18;;;;;;;;;;;15.50;99.90;;;;;;5049335;28;19921;-84
2022/09/01 01:06:48;;;;;;;;;;;15.40;99.90;;;;;;5049468;28;19928;-84
2022/09/01 01:09:19;;;;;;;;;;;15.40;99.90;;;;;;5049539;28;19921;-84
2022/09/01 01:11:46;;;;;;;;;;;15.40;99.90;;;;;;5048978;28;19975;-84
2022/09/01 01:14:14;;;;;;;;;;;15.30;99.90;;;;;;5048555;28;19920;-84
2022/09/01 01:16:43;;;;;;;;;;;15.30;99.90;;;;;;5049282;28;19921;-84
2022/09/01 01:23:00;;;;;;;;;;;15.30;99.90;;;;;;5082974;28;19921;-84
2022/09/01 01:24:48;;;;;;;;;;;15.30;99.90;;;;;;5065596;28;19924;-84
2022/09/01 01:27:20;;;;;;;;;;;15.20;99.90;;;;;;5082914;28;20554;-84
2022/09/01 01:29:47;;;;;;;;;;;15.20;99.90;;;;;;5032372;28;19924;-84
2022/09/01 01:32:13;;;;;;;;;;;15.20;99.90;;;;;;5032354;28;20305;-84
2022/09/01 01:34:44;;;;;;;;;;;15.20;99.90;;;;;;5032453;28;20385;-84
2022/09/01 01:37:12;;;;;;;;;;;15.20;99.90;;;;;;5032381;28;19925;-84
2022/09/01 01:39:39;;;;;;;;;;;15.30;99.90;;;;;;5049316;28;19925;-84
2022/09/01 01:42:08;;;;;;;;;;;15.30;99.90;;;;;;5049146;28;20332;-84
2022/09/01 01:44:36;;;;;;;;;;;15.30;99.90;;;;;;5065790;28;19921;-84
2022/09/01 01:47:07;;;;;;;;;;;15.30;99.90;;;;;;5048550;28;20401;-84
2022/09/01 01:49:33;;;;;;;;;;;15.30;99.90;;;;;;5065675;28;20554;-84
2022/09/01 01:52:00;;;;;;;;;;;15.30;99.90;;;;;;5048128;28;19932;-84
2022/09/01 01:54:31;;;;;;;;;;;15.30;99.90;;;;;;5066020;28;19925;-84
2022/09/01 01:57:00;;;;;;;;;;;15.30;99.90;;;;;;5049077;28;19920;-84
2022/09/01 01:59:28;;;;;;;;;;;15.30;99.90;;;;;;5065531;28;19921;-84
2022/09/01 02:01:55;;;;;;;;;;;15.30;99.90;;;;;;5065634;28;19921;-84
2022/09/01 02:04:21;;;;;;;;;;;15.20;99.90;;;;;;5032228;28;20298;-84
2022/09/01 02:06:47;;;;;;;;;;;15.20;99.90;;;;;;5049132;28;19924;-84
2022/09/01 02:09:14;;;;;;;;;;;15.30;99.90;;;;;;5048783;28;19925;-84
2022/09/01 02:11:39;;;;;;;;;;;15.20;99.90;;;;;;5048576;28;20039;-84
2022/09/01 02:14:06;;;;;;;;;;;15.20;99.90;;;;;;5048447;28;20015;-84
2022/09/01 02:16:33;;;;;;;;;;;15.20;99.90;;;;;;5048810;28;19925;-84
2022/09/01 02:18:59;;;;;;;;;;;15.20;99.90;;;;;;5032173;28;20384;-84
2022/09/01 02:21:26;;;;;;;;;;;15.10;99.90;;;;;;5048073;28;19931;-84
2022/09/01 02:23:59;;;;;;;;;;;15.10;99.90;;;;;;5032471;28;19921;-84
2022/09/01 02:26:33;;;;;;;;;;;15.10;99.90;;;;;;5049390;28;19921;-84
2022/09/01 02:29:03;;;;;;;;;;;15.10;99.90;;;;;;5051998;28;19921;-84
2022/09/01 02:31:34;;;;;;;;;;;15.10;99.90;;;;;;5052079;28;20295;-84
2022/09/01 02:34:00;;;;;;;;;;;15.10;99.90;;;;;;5051812;28;19927;-84
2022/09/01 02:36:26;;;;;;;;;;;15.10;99.90;;;;;;5052079;28;19921;-84
2022/09/01 02:38:52;;;;;;;;;;;15.00;99.90;;;;;;5035635;28;20677;-84
2022/09/01 02:41:19;;;;;;;;;;;15.00;99.90;;;;;;5035279;28;20051;-84
2022/09/01 02:43:45;;;;;;;;;;;15.00;99.90;;;;;;5035056;28;19928;-84
2022/09/01 02:46:11;;;;;;;;;;;15.00;99.90;;;;;;5035431;28;19921;-84
2022/09/01 02:48:38;;;;;;;;;;;15.00;99.90;;;;;;5052057;28;19921;-84
2022/09/01 02:51:05;;;;;;;;;;;15.00;99.90;;;;;;5034813;28;19959;-84
2022/09/01 02:53:33;;;;;;;;;;;14.90;99.90;;;;;;5052176;28;19921;-84
2022/09/01 02:55:59;;;;;;;;;;;14.90;99.90;;;;;;5051844;28;20385;-84
2022/09/01 02:58:25;;;;;;;;;;;14.90;99.90;;;;;;5051599;28;19931;-84
2022/09/01 03:00:52;;;;;;;;;;;14.90;99.90;;;;;;5051190;28;20023;-83
2022/09/01 03:03:20;;;;;;;;;;;14.90;99.90;;;;;;5051741;28;19972;-84
2022/09/01 03:05:46;;;;;;;;;;;14.90;99.90;;;;;;5051181;28;20011;-84
2022/09/01 03:08:14;;;;;;;;;;;14.90;99.90;;;;;;5051700;28;19939;-84
2022/09/01 03:10:41;;;;;;;;;;;14.90;99.90;;;;;;5051372;28;19927;-84
2022/09/01 03:13:09;;;;;;;;;;;14.90;99.90;;;;;;5034468;28;19967;-84
2022/09/01 03:15:35;;;;;;;;;;;14.80;99.90;;;;;;5034644;28;19932;-84
2022/09/01 03:18:02;;;;;;;;;;;14.80;99.90;;;;;;5034802;28;19928;-84
2022/09/01 03:20:28;;;;;;;;;;;14.80;99.90;;;;;;5051396;28;20398;-84
2022/09/01 03:22:56;;;;;;;;;;;14.80;99.90;;;;;;5050889;28;19974;-84
2022/09/01 03:25:23;;;;;;;;;;;14.80;99.90;;;;;;5034643;28;19927;-83
2022/09/01 03:27:50;;;;;;;;;;;14.80;99.90;;;;;;5034090;28;19921;-84
2022/09/01 03:30:16;;;;;;;;;;;14.80;99.90;;;;;;5051432;28;19925;-83
2022/09/01 03:32:41;;;;;;;;;;;14.80;99.90;;;;;;5050768;28;20409;-84
2022/09/01 03:35:08;;;;;;;;;;;14.80;99.90;;;;;;5050748;28;19960;-84
2022/09/01 03:37:35;;;;;;;;;;;14.70;99.90;;;;;;5050644;28;19921;-84
2022/09/01 03:40:03;;;;;;;;;;;14.80;99.90;;;;;;5050851;28;19974;-84
2022/09/01 03:42:29;;;;;;;;;;;14.70;99.90;;;;;;5033730;28;20583;-84
2022/09/01 03:44:55;;;;;;;;;;;14.70;99.90;;;;;;5050707;28;19971;-84
2022/09/01 03:47:23;;;;;;;;;;;14.70;99.90;;;;;;5050850;28;20054;-84
2022/09/01 03:49:49;;;;;;;;;;;14.70;99.90;;;;;;5050789;28;20038;-84
2022/09/01 03:52:16;;;;;;;;;;;14.70;99.90;;;;;;5033732;28;20048;-84
2022/09/01 03:54:42;;;;;;;;;;;14.70;99.90;;;;;;5050695;28;19921;-84
2022/09/01 03:57:09;;;;;;;;;;;14.70;99.90;;;;;;5050496;28;19924;-84
2022/09/01 03:59:35;;;;;;;;;;;14.60;99.90;;;;;;5050464;28;19966;-84
2022/09/01 04:02:01;;;;;;;;;;;14.70;99.90;;;;;;5033765;28;20299;-84
2022/09/01 04:04:30;;;;;;;;;;;14.60;99.90;;;;;;5033639;28;19947;-84
2022/09/01 04:06:55;;;;;;;;;;;14.60;99.90;;;;;;5034201;28;20031;-84
2022/09/01 04:09:21;;;;;;;;;;;14.60;99.90;;;;;;5033761;28;20426;-84
2022/09/01 04:11:47;;;;;;;;;;;14.60;99.90;;;;;;5033126;28;19944;-84
2022/09/01 04:14:13;;;;;;;;;;;14.60;99.90;;;;;;5050126;28;19971;-84
2022/09/01 04:19:25;;;;;;;;;;;14.60;99.90;;;;;;5049753;28;19925;-84
2022/09/01 04:21:55;;;;;;;;;;;14.60;99.90;;;;;;5049650;28;19927;-84
2022/09/01 04:24:23;;;;;;;;;;;14.60;99.90;;;;;;5033469;28;19960;-84
2022/09/01 04:26:49;;;;;;;;;;;14.60;99.90;;;;;;5050053;28;20395;-84
2022/09/01 04:29:18;;;;;;;;;;;14.60;99.90;;;;;;5049867;28;19974;-84
2022/09/01 04:31:44;;;;;;;;;;;14.60;99.90;;;;;;5049460;28;19935;-84
2022/09/01 04:34:12;;;;;;;;;;;14.60;99.90;;;;;;5049919;28;19921;-84
2022/09/01 04:36:42;;;;;;;;;;;14.60;99.90;;;;;;5033000;28;19921;-84
2022/09/01 04:39:09;;;;;;;;;;;14.60;99.90;;;;;;5049863;28;20271;-84
2022/09/01 04:41:39;;;;;;;;;;;14.60;99.90;;;;;;5032775;28;19925;-84
2022/09/01 04:44:06;;;;;;;;;;;14.60;99.90;;;;;;5049694;28;19928;-84
2022/09/01 04:46:34;;;;;;;;;;;14.60;99.90;;;;;;5049763;28;19928;-84
2022/09/01 04:49:02;;;;;;;;;;;14.50;99.90;;;;;;5048802;28;19931;-84
2022/09/01 04:51:27;;;;;;;;;;;14.50;99.90;;;;;;5032959;28;19968;-84
2022/09/01 04:53:56;;;;;;;;;;;14.50;99.90;;;;;;5033289;28;20690;-84
2022/09/01 04:56:22;;;;;;;;;;;14.50;99.90;;;;;;5049681;28;20285;-84
2022/09/01 04:58:48;;;;;;;;;;;14.50;99.90;;;;;;5032639;28;20436;-84
2022/09/01 05:01:21;;;;;;;;;;;14.50;99.90;;;;;;5050043;28;20401;-84
2022/09/01 05:03:55;;;;;;;;;;;14.50;99.90;;;;;;5044744;28;19951;-84
2022/09/01 05:06:21;;;;;;;;;;;14.50;99.90;;;;;;5040178;28;20401;-84
2022/09/01 05:08:46;;;;;;;;;;;14.50;99.90;;;;;;5024170;28;19971;-84
2022/09/01 05:11:15;;;;;;;;;;;14.50;99.90;;;;;;5033016;28;19936;-84
2022/09/01 05:13:44;;;;;;;;;;;14.50;99.90;;;;;;5083914;28;19925;-84
2022/09/01 05:16:11;;;;;;;;;;;14.50;99.90;;;;;;5050499;28;20018;-84
2022/09/01 05:18:39;;;;;;;;;;;14.40;99.90;;;;;;5050392;28;19920;-84
2022/09/01 05:21:08;;;;;;;;;;;14.50;99.90;;;;;;5049946;28;20015;-83
2022/09/01 05:23:35;;;;;;;;;;;14.40;99.90;;;;;;5033573;28;19932;-84
2022/09/01 05:26:03;;;;;;;;;;;14.50;99.90;;;;;;5049835;28;20400;-83
2022/09/01 05:28:28;;;;;;;;;;;14.50;99.90;;;;;;5080485;28;19972;-83
2022/09/01 05:30:54;;;;;;;;;;;14.50;99.90;;;;;;5049828;28;20029;-83
2022/09/01 05:33:20;;;;;;;;;;;14.50;99.90;;;;;;5033313;28;19921;-83
2022/09/01 05:36:00;;;;;;;;;;;14.50;99.90;;;;;;5033874;28;19951;-83
2022/09/01 05:38:25;;;;;;;;;;;14.50;99.90;;;;;;5033835;28;19963;-83
2022/09/01 05:41:00;;;;;;;;;;;14.50;99.90;;;;;;5049526;28;19960;-83
2022/09/01 05:43:26;;;;;;;;;;;14.50;99.90;;;;;;5033715;28;20007;-83
2022/09/01 05:45:53;;;;;;;;;;;14.60;99.90;;;;;;5033342;28;20414;-84
2022/09/01 05:48:20;;;;;;;;;;;14.60;99.90;;;;;;5049639;28;19921;-84
2022/09/01 05:50:48;;;;;;;;;;;14.60;99.90;;;;;;5050254;28;20078;-84
2022/09/01 05:53:17;;;;;;;;;;;14.70;99.90;;;;;;5033118;28;19927;-83
2022/09/01 05:55:43;;;;;;;;;;;14.70;99.90;;;;;;5049408;28;19952;-83
2022/09/01 05:58:12;;;;;;;;;;;14.70;99.90;;;;;;5033588;28;19924;-84
2022/09/01 06:00:39;;;;;;;;;;;14.70;99.90;;;;;;5031414;28;19968;-84
2022/09/01 06:03:08;;;;;;;;;;;14.70;99.90;;;;;;5042710;28;19921;-83
2022/09/01 06:05:35;;;;;;;;;;;14.80;99.90;;;;;;5054576;28;19932;-83
2022/09/01 06:08:02;;;;;;;;;;;14.80;99.90;;;;;;5087294;28;19964;-83
2022/09/01 06:10:28;;;;;;;;;;;14.80;99.90;;;;;;5053296;28;19974;-84
2022/09/01 06:12:54;;;;;;;;;;;14.80;99.90;;;;;;5080862;28;19975;-83
2022/09/01 06:15:19;;;;;;;;;;;14.90;99.90;;;;;;5044780;28;20340;-83
2022/09/01 06:17:45;;;;;;;;;;;14.90;99.90;;;;;;5053337;28;19920;-83
2022/09/01 06:20:11;;;;;;;;;;;14.90;99.90;;;;;;5053581;28;19966;-83
2022/09/01 06:22:37;;;;;;;;;;;15.00;99.90;;;;;;5052962;28;19921;-83
2022/09/01 06:25:05;;;;;;;;;;;15.00;99.90;;;;;;5086279;28;20619;-84
2022/09/01 06:27:37;;;;;;;;;;;15.00;99.90;;;;;;5086724;28;19921;-83
2022/09/01 06:30:13;;;;;;;;;;;15.10;99.90;;;;;;5053332;28;20283;-83
2022/09/01 06:32:42;;;;;;;;;;;15.20;99.90;;;;;;5086150;28;19929;-84
2022/09/01 06:35:17;;;;;;;;;;;15.20;99.90;;;;;;5086519;28;20366;-84
2022/09/01 06:37:43;;;;;;;;;;;15.30;99.90;;;;;;5052722;28;19925;-84
2022/09/01 06:40:15;;;;;;;;;;;15.30;99.90;;;;;;5052670;28;19921;-84
2022/09/01 06:42:51;;;;;;;;;;;15.40;99.90;;;;;;5053088;28;19921;-83
2022/09/01 06:45:19;;;;;;;;;;;15.40;99.90;;;;;;5086384;28;19925;-84
2022/09/01 06:47:46;;;;;;;;;;;15.50;99.90;;;;;;5052598;28;19928;-83
2022/09/01 06:50:14;;;;;;;;;;;15.50;99.90;;;;;;5052174;28;19921;-84
2022/09/01 06:52:42;;;;;;;;;;;15.60;99.90;;;;;;5052463;28;20412;-84
2022/09/01 06:55:09;;;;;;;;;;;15.60;99.90;;;;;;5052510;28;19950;-84
2022/09/01 06:57:36;;;;;;;;;;;15.70;99.90;;;;;;5052686;28;20015;-84
2022/09/01 07:00:06;;;;;;;;;;;15.70;99.90;;;;;;5053025;28;20398;-84
2022/09/01 07:02:32;;;;;;;;;;;15.80;99.90;;;;;;5051896;28;19928;-83
2022/09/01 07:04:58;;;;;;;;;;;15.90;99.90;;;;;;5052509;28;19955;-84
2022/09/01 07:07:26;;;;;;;;;;;15.90;99.90;;;;;;5052895;28;19979;-84
2022/09/01 07:09:52;;;;;;;;;;;16.00;99.90;;;;;;5085650;28;20062;-84
2022/09/01 07:12:18;;;;;;;;;;;16.00;99.90;;;;;;5051261;28;20019;-84
2022/09/01 07:14:45;;;;;;;;;;;16.10;99.90;;;;;;5035572;28;19928;-84
2022/09/01 07:17:12;;;;;;;;;;;16.10;99.90;;;;;;5052306;28;19925;-84
2022/09/01 07:19:38;;;;;;;;;;;16.20;99.90;;;;;;5052354;28;19975;-84
2022/09/01 07:22:04;;;;;;;;;;;16.30;99.90;;;;;;5051926;28;19924;-84
2022/09/01 07:24:29;;;;;;;;;;;16.40;99.90;;;;;;5052147;28;19920;-84
2022/09/01 07:26:55;;;;;;;;;;;16.50;99.90;;;;;;5035448;28;19974;-84
2022/09/01 07:29:21;;;;;;;;;;;16.50;99.90;;;;;;5052133;28;19974;-84
2022/09/01 07:31:48;;;;;;;;;;;16.60;99.90;;;;;;5051519;28;19928;-84
2022/09/01 07:34:15;;;;;;;;;;;16.60;99.90;;;;;;5034765;28;19936;-83
2022/09/01 07:36:42;;;;;;;;;;;16.70;99.90;;;;;;5085459;28;20305;-84
2022/09/01 07:39:08;;;;;;;;;;;16.80;99.90;;;;;;5051465;28;19928;-84
2022/09/01 07:41:34;;;;;;;;;;;16.80;99.90;;;;;;5034939;28;19924;-84
2022/09/01 07:44:00;;;;;;;;;;;16.90;99.90;;;;;;5083433;28;19987;-84
2022/09/01 07:46:26;;;;;;;;;;;17.00;99.90;;;;;;5035020;28;19922;-84
2022/09/01 07:48:53;;;;;;;;;;;17.10;99.90;;;;;;5048534;28;19927;-84
2022/09/01 07:51:20;;;;;;;;;;;17.10;99.90;;;;;;5051154;28;19925;-84
2022/09/01 07:53:47;;;;;;;;;;;17.20;99.90;;;;;;5051362;28;19928;-84
2022/09/01 07:56:14;;;;;;;;;;;17.30;99.90;;;;;;5051708;28;19920;-84
2022/09/01 07:58:40;;;;;;;;;;;17.30;99.90;;;;;;5051369;28;19925;-84
2022/09/01 08:01:07;;;;;;;;;;;17.50;99.90;;;;;;5050787;28;19921;-84
2022/09/01 08:03:33;;;;;;;;;;;17.50;99.90;;;;;;5051434;28;19925;-84
2022/09/01 08:06:10;;;;;;;;;;;17.60;99.90;;;;;;5085030;28;19930;-84
2022/09/01 08:08:36;;;;;;;;;;;17.70;99.90;;;;;;5050997;28;19928;-84
2022/09/01 08:11:02;;;;;;;;;;;17.80;99.90;;;;;;5050450;28;19921;-84
2022/09/01 08:13:28;;;;;;;;;;;17.90;99.90;;;;;;5051066;28;19921;-84
2022/09/01 08:15:54;;;;;;;;;;;18.00;99.90;;;;;;5051130;28;19984;-84
2022/09/01 08:18:20;;;;;;;;;;;18.00;99.90;;;;;;5051160;28;19924;-84
2022/09/01 08:20:46;;;;;;;;;;;18.10;99.90;;;;;;5051274;28;19925;-84
2022/09/01 08:23:13;;;;;;;;;;;18.20;99.90;;;;;;5034263;28;19982;-84
2022/09/01 08:25:41;;;;;;;;;;;18.20;99.90;;;;;;5034299;28;19971;-84
2022/09/01 08:28:06;;;;;;;;;;;18.40;99.90;;;;;;5050925;28;20298;-84
2022/09/01 08:30:32;;;;;;;;;;;18.50;99.90;;;;;;5050627;28;19921;-84
2022/09/01 08:32:59;;;;;;;;;;;18.50;99.90;;;;;;5050606;28;19976;-84
2022/09/01 08:35:25;;;;;;;;;;;18.60;99.90;;;;;;5050156;28;20011;-84
2022/09/01 08:37:50;;;;;;;;;;;18.70;99.90;;;;;;5050224;28;20015;-84
2022/09/01 08:40:17;;;;;;;;;;;18.80;99.90;;;;;;5034045;28;19925;-84
2022/09/01 08:43:23;;;;;;;;;;;18.80;99.90;;;;;;5050462;28;19972;-84
2022/09/01 08:45:52;;;;;;;;;;;19.00;99.90;;;;;;5012744;28;19931;-85
2022/09/01 08:48:19;;;;;;;;;;;19.10;99.90;;;;;;4996757;28;19968;-85
2022/09/01 08:50:47;;;;;;;;;;;19.20;99.90;;;;;;5012813;28;20329;-85
2022/09/01 08:53:35;;;;;;;;;;;19.20;99.90;;;;;;5011972;28;20404;-84
2022/09/01 08:56:00;;;;;;;;;;;19.30;99.90;;;;;;5012774;28;20454;-84
2022/09/01 08:58:29;;;;;;;;;;;19.50;99.90;;;;;;5013028;28;19928;-85
2022/09/01 09:00:57;;;;;;;;;;;19.50;99.90;;;;;;4996079;28;19960;-84
2022/09/01 09:03:23;;;;;;;;;;;19.60;99.70;;;;;;5013075;28;20060;-84
2022/09/01 09:05:56;;;;;;;;;;;19.70;98.20;;;;;;5012770;28;20011;-85
2022/09/01 09:08:27;;;;;;;;;;;19.80;97.30;;;;;;4996222;28;19936;-84
2022/09/01 09:10:56;;;;;;;;;;;19.80;97.30;;;;;;5012437;28;19921;-84
2022/09/01 09:13:27;;;;;;;;;;;19.90;97.20;;;;;;5012884;28;19967;-84
2022/09/01 09:15:56;;;;;;;;;;;20.00;96.20;;;;;;5002246;28;19990;-84
2022/09/01 09:18:26;;;;;;;;;;;20.10;95.80;;;;;;5050256;28;20293;-84
2022/09/01 09:20:52;;;;;;;;;;;20.20;94.80;;;;;;5050287;28;19928;-84
2022/09/01 09:23:25;;;;;;;;;;;20.30;94.10;;;;;;5044895;28;19925;-84
2022/09/01 09:25:51;;;;;;;;;;;20.40;95.00;;;;;;5030327;28;19921;-84
2022/09/01 09:28:16;;;;;;;;;;;20.40;94.00;;;;;;5032229;28;19925;-84
2022/09/01 09:30:42;;;;;;;;;;;20.50;94.30;;;;;;5033406;28;19927;-84
2022/09/01 09:33:09;;;;;;;;;;;20.60;93.20;;;;;;5025896;28;19924;-84
2022/09/01 09:35:45;;;;;;;;;;;20.60;92.80;;;;;;5039200;28;19975;-84
2022/09/01 09:38:27;;;;;;;;;;;20.70;92.40;;;;;;5039734;28;19929;-84
2022/09/01 09:41:11;;;;;;;;;;;20.80;91.00;;;;;;5048623;28;19921;-84
2022/09/01 09:43:42;;;;;;;;;;;20.90;91.10;;;;;;5054072;28;19921;-84
2022/09/01 09:46:25;;;;;;;;;;;21.00;89.90;;;;;;5036665;28;19932;-84
2022/09/01 09:49:09;;;;;;;;;;;21.00;89.40;;;;;;5053875;28;19924;-85
2022/09/01 09:51:36;;;;;;;;;;;21.10;88.60;;;;;;5036699;28;20066;-84
2022/09/01 09:54:12;;;;;;;;;;;21.20;85.20;;;;;;5053836;28;19921;-84
2022/09/01 09:56:40;;;;;;;;;;;21.30;86.20;;;;;;5053791;28;19925;-84
2022/09/01 09:59:25;;;;;;;;;;;21.40;84.40;;;;;;5053788;28;19921;-84
2022/09/01 10:01:53;;;;;;;;;;;21.50;81.10;;;;;;5053513;28;19920;-84
2022/09/01 10:04:33;;;;;;;;;;;21.50;81.90;;;;;;5053570;28;19925;-84
2022/09/01 10:06:58;;;;;;;;;;;21.60;80.10;;;;;;5053268;28;19925;-85
2022/09/01 10:09:24;;;;;;;;;;;21.70;78.60;;;;;;5036936;28;20007;-84
2022/09/01 10:11:54;;;;;;;;;;;21.70;78.40;;;;;;5053237;28;19982;-84
2022/09/01 10:14:26;;;;;;;;;;;21.80;76.80;;;;;;5036559;28;20384;-85
2022/09/01 10:16:54;;;;;;;;;;;21.80;73.50;;;;;;5053398;28;20294;-85
2022/09/01 10:19:21;;;;;;;;;;;21.90;73.80;;;;;;5036492;28;19956;-85
2022/09/01 10:21:46;;;;;;;;;;;21.90;73.10;;;;;;5052740;28;19921;-85
2022/09/01 10:24:12;;;;;;;;;;;22.00;73.20;;;;;;5053073;28;19927;-84
2022/09/01 10:26:39;;;;;;;;;;;22.10;74.20;;;;;;5053625;28;19994;-85
2022/09/01 10:29:11;;;;;;;;;;;22.20;71.10;;;;;;5052981;28;20012;-85
2022/09/01 10:31:36;;;;;;;;;;;22.20;69.40;;;;;;5052943;28;19925;-85
2022/09/01 10:34:03;;;;;;;;;;;22.30;69.00;;;;;;5052748;28;20278;-85
2022/09/01 10:36:30;;;;;;;;;;;22.30;68.10;;;;;;5052646;28;19925;-85
2022/09/01 10:38:55;;;;;;;;;;;22.40;67.90;;;;;;5053322;28;20008;-85
2022/09/01 10:41:40;;;;;;;;;;;22.50;68.90;;;;;;5052676;28;19970;-85
2022/09/01 10:44:29;;;;;;;;;;;22.60;68.00;;;;;;5035962;28;20399;-85
2022/09/01 10:46:56;;;;;;;;;;;22.60;67.40;;;;;;5050023;28;20008;-85
2022/09/01 10:49:41;;;;;;;;;;;22.60;68.20;;;;;;5031367;28;19924;-85
2022/09/01 10:52:07;;;;;;;;;;;22.80;68.10;;;;;;5059313;28;19982;-85
2022/09/01 10:54:38;;;;;;;;;;;22.80;65.30;;;;;;5043242;28;19924;-85
2022/09/01 10:57:10;;;;;;;;;;;22.80;64.40;;;;;;5083195;28;19928;-85
2022/09/01 10:59:35;;;;;;;;;;;22.80;63.50;;;;;;5085965;28;19927;-85
2022/09/01 11:02:09;;;;;;;;;;;22.90;65.70;;;;;;5069088;28;20321;-85
2022/09/01 11:04:41;;;;;;;;;;;22.90;65.40;;;;;;5052386;28;19924;-85
2022/09/01 11:07:24;;;;;;;;;;;23.10;64.70;;;;;;5052163;28;19984;-85
2022/09/01 11:10:06;;;;;;;;;;;23.20;64.40;;;;;;5052208;28;19965;-84
2022/09/01 11:12:35;;;;;;;;;;;23.30;63.50;;;;;;5045581;28;19925;-85
2022/09/01 11:15:02;;;;;;;;;;;23.50;62.80;;;;;;5041615;28;19928;-85
2022/09/01 11:17:32;;;;;;;;;;;23.50;63.10;;;;;;5040588;28;20306;-85
2022/09/01 11:19:58;;;;;;;;;;;23.50;62.70;;;;;;5042999;28;19994;-85
2022/09/01 11:22:29;;;;;;;;;;;23.50;62.60;;;;;;5044345;28;19925;-85
2022/09/01 11:25:32;;;;;;;;;;;23.60;62.50;;;;;;5040112;28;20007;-85
2022/09/01 11:27:59;;;;;;;;;;;23.70;62.80;;;;;;5069060;28;19921;-85
2022/09/01 11:30:34;;;;;;;;;;;23.80;61.60;;;;;;5035501;28;19928;-85
2022/09/01 11:33:15;;;;;;;;;;;23.80;60.80;;;;;;5051468;28;19935;-85
2022/09/01 11:35:41;;;;;;;;;;;23.70;60.90;;;;;;5034852;28;20007;-85
2022/09/01 11:38:07;;;;;;;;;;;23.70;61.90;;;;;;5051541;28;19921;-85
2022/09/01 11:40:34;;;;;;;;;;;23.70;61.10;;;;;;5050886;28;20374;-85
2022/09/01 11:43:06;;;;;;;;;;;23.80;60.20;;;;;;5050778;28;19928;-85
2022/09/01 11:45:32;;;;;;;;;;;23.80;60.50;;;;;;5052096;28;19925;-85
2022/09/01 11:48:04;;;;;;;;;;;23.90;58.40;;;;;;5035341;28;20275;-85
2022/09/01 11:50:32;;;;;;;;;;;23.70;56.40;;;;;;5051487;28;19932;-85
2022/09/01 11:53:06;;;;;;;;;;;23.70;57.90;;;;;;5051165;28;20002;-84
2022/09/01 11:55:33;;;;;;;;;;;23.60;58.40;;;;;;5051530;28;19928;-85
2022/09/01 11:57:59;;;;;;;;;;;23.70;58.40;;;;;;5050781;28;19925;-85
2022/09/01 12:00:30;;;;;;;;;;;23.80;58.80;;;;;;5051576;28;19928;-85
2022/09/01 12:02:56;;;;;;;;;;;23.90;57.90;;;;;;5051195;28;19946;-85
2022/09/01 12:05:32;;;;;;;;;;;23.90;57.70;;;;;;5050917;28;19921;-85
2022/09/01 12:07:59;;;;;;;;;;;24.00;58.10;;;;;;5034887;28;19921;-85
2022/09/01 12:10:36;;;;;;;;;;;24.20;58.30;;;;;;5051096;28;19925;-85
2022/09/01 12:13:09;;;;;;;;;;;24.30;58.10;;;;;;5034342;28;19925;-85
2022/09/01 12:15:37;;;;;;;;;;;24.40;58.20;;;;;;5051127;28;19928;-85
2022/09/01 12:18:10;;;;;;;;;;;24.60;57.50;;;;;;5051080;28;19924;-85
2022/09/01 12:20:37;;;;;;;;;;;24.70;55.90;;;;;;5051107;28;20373;-85
2022/09/01 12:23:14;;;;;;;;;;;24.80;55.50;;;;;;5050743;28;20011;-85
2022/09/01 12:25:39;;;;;;;;;;;25.00;54.60;;;;;;5051348;28;19921;-85
2022/09/01 12:28:05;;;;;;;;;;;25.20;55.10;;;;;;5050706;28;19921;-85
2022/09/01 12:30:34;;;;;;;;;;;25.30;54.20;;;;;;5051354;28;19921;-85
2022/09/01 12:33:01;;;;;;;;;;;25.60;54.00;;;;;;5050635;28;19925;-85
2022/09/01 12:35:26;;;;;;;;;;;25.80;52.50;;;;;;5050485;28;19960;-86
2022/09/01 12:38:12;;;;;;;;;;;25.70;52.80;;;;;;5051266;28;19956;-85
2022/09/01 12:40:37;;;;;;;;;;;25.60;51.00;;;;;;5050545;28;20382;-85
2022/09/01 12:43:03;;;;;;;;;;;25.50;52.90;;;;;;5050697;28;19971;-85
2022/09/01 12:45:38;;;;;;;;;;;25.70;51.50;;;;;;5051930;28;19928;-85
2022/09/01 12:48:03;;;;;;;;;;;25.90;51.50;;;;;;5050905;28;19929;-85
2022/09/01 12:50:29;;;;;;;;;;;26.20;51.40;;;;;;5050443;28;19921;-85
2022/09/01 12:53:02;;;;;;;;;;;26.50;50.10;;;;;;5050122;28;19925;-85
2022/09/01 12:55:28;;;;;;;;;;;26.70;49.70;;;;;;5050811;28;20298;-85
2022/09/01 12:57:55;;;;;;;;;;;26.70;50.40;;;;;;5050355;28;19935;-85
2022/09/01 13:00:32;;;;;;;;;;;26.80;50.20;;;;;;5051657;28;20439;-85
2022/09/01 13:03:12;;;;;;;;;;;27.00;49.90;;;;;;5031462;28;19922;-85
2022/09/01 13:05:42;;;;;;;;;;;27.00;49.60;;;;;;5030235;28;19921;-85
2022/09/01 13:08:09;;;;;;;;;;;26.80;46.60;;;;;;5030673;28;20306;-85
2022/09/01 13:10:36;;;;;;;;;;;26.60;46.40;;;;;;5030326;28;19925;-85
2022/09/01 13:13:03;;;;;;;;;;;26.60;45.40;;;;;;5029959;28;19936;-85
2022/09/01 13:15:29;;;;;;;;;;;26.60;45.60;;;;;;5030296;28;20382;-86
2022/09/01 13:17:55;;;;;;;;;;;26.70;46.90;;;;;;5030543;28;20394;-85
2022/09/01 13:20:21;;;;;;;;;;;26.80;45.80;;;;;;5030544;28;20067;-85
2022/09/01 13:22:47;;;;;;;;;;;26.90;45.60;;;;;;5031256;28;20066;-85
2022/09/01 13:25:17;;;;;;;;;;;27.40;45.20;;;;;;5030101;28;19921;-85
2022/09/01 13:27:43;;;;;;;;;;;27.70;44.20;;;;;;5030260;28;20290;-85
2022/09/01 13:30:10;;;;;;;;;;;27.90;43.90;;;;;;5044918;28;19928;-85
2022/09/01 13:32:35;;;;;;;;;;;28.00;43.50;;;;;;5036980;28;20011;-86
2022/09/01 13:35:01;;;;;;;;;;;28.10;43.90;;;;;;5029977;28;20016;-85
2022/09/01 13:37:26;;;;;;;;;;;28.40;44.30;;;;;;5047117;28;19971;-85
2022/09/01 13:39:52;;;;;;;;;;;28.50;43.30;;;;;;5029969;28;20469;-86
2022/09/01 13:42:17;;;;;;;;;;;28.50;43.20;;;;;;5030941;28;19927;-85
2022/09/01 13:44:43;;;;;;;;;;;28.60;43.00;;;;;;5030231;28;19921;-85
2022/09/01 13:47:08;;;;;;;;;;;28.40;42.20;;;;;;5060555;28;20406;-85
2022/09/01 13:49:34;;;;;;;;;;;28.50;43.20;;;;;;5049699;28;19924;-85
2022/09/01 13:52:00;;;;;;;;;;;28.70;42.20;;;;;;5049510;28;19979;-85
2022/09/01 13:54:25;;;;;;;;;;;28.90;43.80;;;;;;5049633;28;19921;-86
2022/09/01 13:56:51;;;;;;;;;;;28.90;41.70;;;;;;5049802;28;20271;-85
2022/09/01 13:59:16;;;;;;;;;;;28.70;42.80;;;;;;5049893;28;19925;-86
2022/09/01 14:01:42;;;;;;;;;;;28.50;41.70;;;;;;5049552;28;20004;-85
2022/09/01 14:04:08;;;;;;;;;;;28.20;42.20;;;;;;5049425;28;19971;-86
2022/09/01 14:06:43;;;;;;;;;;;27.90;42.60;;;;;;5049751;28;19924;-86
2022/09/01 14:09:13;;;;;;;;;;;27.90;42.30;;;;;;5049659;28;19924;-85
2022/09/01 14:11:39;;;;;;;;;;;27.90;42.20;;;;;;5049279;28;20051;-86
2022/09/01 14:14:05;;;;;;;;;;;28.00;42.80;;;;;;5049659;28;20012;-86
2022/09/01 14:16:30;;;;;;;;;;;28.20;42.50;;;;;;5049676;28;19999;-85
2022/09/01 14:18:58;;;;;;;;;;;28.30;42.10;;;;;;5032958;28;20007;-85
2022/09/01 14:21:24;;;;;;;;;;;28.60;41.60;;;;;;5050188;28;20441;-86
2022/09/01 14:23:49;;;;;;;;;;;28.50;40.40;;;;;;5054614;28;19927;-86
2022/09/01 14:26:15;;;;;;;;;;;28.30;39.80;;;;;;5053011;28;19924;-85
2022/09/01 14:28:46;;;;;;;;;;;28.10;40.50;;;;;;5036837;28;19928;-86